sensor_id;sensor_type;location;lat;lon;timestamp;pressure;altitude;pressure_sealevel;temperature;humidity
39435;BME280;66825;51.880;-0.518;2023-02-23T00:01:21;100471.22;;;15.64;44.35
39435;BME280;66825;51.880;-0.518;2023-02-23T00:03:47;100548.50;;;16.12;44.56
39435;BME280;66825;51.880;-0.518;2023-02-23T00:06:15;100552.31;;;16.11;44.33
39435;BME280;66825;51.880;-0.518;2023-02-23T00:08:42;100558.84;;;16.10;44.07
39435;BME280;66825;51.880;-0.518;2023-02-23T00:11:10;100506.13;;;15.81;44.37
39435;BME280;66825;51.880;-0.518;2023-02-23T00:13:37;100542.84;;;16.08;44.55
39435;BME280;66825;51.880;-0.518;2023-02-23T00:16:05;100548.56;;;16.07;44.47
39435;BME280;66825;51.880;-0.518;2023-02-23T00:18:31;100547.22;;;16.04;44.40
39435;BME280;66825;51.880;-0.518;2023-02-23T00:21:05;100555.09;;;16.06;44.44
39435;BME280;66825;51.880;-0.518;2023-02-23T00:23:30;100543.81;;;15.93;44.49
39435;BME280;66825;51.880;-0.518;2023-02-23T00:25:56;100528.13;;;15.85;44.32
39435;BME280;66825;51.880;-0.518;2023-02-23T00:28:23;100551.66;;;15.95;44.56
39435;BME280;66825;51.880;-0.518;2023-02-23T00:30:49;100527.31;;;15.79;44.31
39435;BME280;66825;51.880;-0.518;2023-02-23T00:33:14;100516.78;;;15.72;44.50
39435;BME280;66825;51.880;-0.518;2023-02-23T00:35:40;100563.00;;;16.02;44.54
39435;BME280;66825;51.880;-0.518;2023-02-23T00:38:07;100554.44;;;15.90;44.39
39435;BME280;66825;51.880;-0.518;2023-02-23T00:40:32;100574.16;;;16.00;44.15
39435;BME280;66825;51.880;-0.518;2023-02-23T00:42:58;100572.00;;;15.97;44.24
39435;BME280;66825;51.880;-0.518;2023-02-23T00:45:25;100557.91;;;15.95;44.04
39435;BME280;66825;51.880;-0.518;2023-02-23T00:47:50;100557.91;;;15.95;44.26
39435;BME280;66825;51.880;-0.518;2023-02-23T00:50:17;100568.81;;;15.90;44.07
39435;BME280;66825;51.880;-0.518;2023-02-23T00:52:43;100478.75;;;15.43;44.27
39435;BME280;66825;51.880;-0.518;2023-02-23T00:55:13;100490.16;;;15.45;44.43
39435;BME280;66825;51.880;-0.518;2023-02-23T00:57:39;100573.41;;;15.95;44.34
39435;BME280;66825;51.880;-0.518;2023-02-23T01:00:07;100579.94;;;15.94;44.25
39435;BME280;66825;51.880;-0.518;2023-02-23T01:02:46;100585.34;;;15.94;44.34
39435;BME280;66825;51.880;-0.518;2023-02-23T01:05:12;100575.59;;;15.93;44.46
39435;BME280;66825;51.880;-0.518;2023-02-23T01:07:38;100586.44;;;15.93;44.37
39435;BME280;66825;51.880;-0.518;2023-02-23T01:10:05;100499.41;;;15.39;44.36
39435;BME280;66825;51.880;-0.518;2023-02-23T01:12:48;100529.13;;;15.60;44.47
39435;BME280;66825;51.880;-0.518;2023-02-23T01:15:14;100576.97;;;15.90;44.15
39435;BME280;66825;51.880;-0.518;2023-02-23T01:17:40;100523.22;;;15.47;44.37
39435;BME280;66825;51.880;-0.518;2023-02-23T01:20:08;100575.38;;;15.79;44.45
39435;BME280;66825;51.880;-0.518;2023-02-23T01:23:01;100584.63;;;15.83;44.14
39435;BME280;66825;51.880;-0.518;2023-02-23T01:25:26;100595.75;;;15.86;44.24
39435;BME280;66825;51.880;-0.518;2023-02-23T01:27:53;100516.28;;;15.36;44.27
39435;BME280;66825;51.880;-0.518;2023-02-23T01:30:19;100585.22;;;15.75;44.50
39435;BME280;66825;51.880;-0.518;2023-02-23T01:32:45;100501.16;;;15.24;44.09
39435;BME280;66825;51.880;-0.518;2023-02-23T01:35:11;100583.84;;;15.77;44.50
39435;BME280;66825;51.880;-0.518;2023-02-23T01:37:38;100568.47;;;15.62;44.23
39435;BME280;66825;51.880;-0.518;2023-02-23T01:40:06;100603.91;;;15.81;44.30
39435;BME280;66825;51.880;-0.518;2023-02-23T01:42:42;100536.31;;;15.40;44.29
39435;BME280;66825;51.880;-0.518;2023-02-23T01:47:46;100597.66;;;15.81;44.23
39435;BME280;66825;51.880;-0.518;2023-02-23T01:50:12;100574.72;;;15.63;44.24
39435;BME280;66825;51.880;-0.518;2023-02-23T01:52:42;100604.19;;;15.80;44.30
39435;BME280;66825;51.880;-0.518;2023-02-23T01:55:10;100599.03;;;15.78;44.48
39435;BME280;66825;51.880;-0.518;2023-02-23T01:57:38;100538.03;;;15.31;44.50
39435;BME280;66825;51.880;-0.518;2023-02-23T02:00:06;100555.63;;;15.38;44.26
39435;BME280;66825;51.880;-0.518;2023-02-23T02:02:40;100608.88;;;15.74;44.35
39435;BME280;66825;51.880;-0.518;2023-02-23T02:05:06;100540.22;;;15.29;44.35
39435;BME280;66825;51.880;-0.518;2023-02-23T02:07:38;100535.06;;;15.27;44.43
39435;BME280;66825;51.880;-0.518;2023-02-23T02:10:07;100601.81;;;15.68;44.55
39435;BME280;66825;51.880;-0.518;2023-02-23T02:12:37;100601.31;;;15.66;44.53
39435;BME280;66825;51.880;-0.518;2023-02-23T02:15:05;100580.78;;;15.49;44.52
39435;BME280;66825;51.880;-0.518;2023-02-23T02:46:03;100616.78;;;15.65;44.44
39435;BME280;66825;51.880;-0.518;2023-02-23T02:48:39;100619.50;;;15.65;44.29
39435;BME280;66825;51.880;-0.518;2023-02-23T02:53:50;100591.09;;;15.52;44.26
39435;BME280;66825;51.880;-0.518;2023-02-23T02:56:22;100534.59;;;15.15;44.45
39435;BME280;66825;51.880;-0.518;2023-02-23T02:58:51;100597.03;;;15.54;44.41
39435;BME280;66825;51.880;-0.518;2023-02-23T03:01:18;100604.09;;;15.55;44.43
39435;BME280;66825;51.880;-0.518;2023-02-23T03:04:18;100607.88;;;15.60;44.29
39435;BME280;66825;51.880;-0.518;2023-02-23T03:07:14;100601.09;;;15.57;44.36
39435;BME280;66825;51.880;-0.518;2023-02-23T03:10:27;100607.88;;;15.60;44.32
39435;BME280;66825;51.880;-0.518;2023-02-23T03:13:26;100610.59;;;15.60;44.49
39435;BME280;66825;51.880;-0.518;2023-02-23T03:19:26;100554.13;;;15.17;44.48
39435;BME280;66825;51.880;-0.518;2023-02-23T03:22:27;100622.03;;;15.56;44.26
39435;BME280;66825;51.880;-0.518;2023-02-23T03:25:40;100609.28;;;15.52;44.33
39435;BME280;66825;51.880;-0.518;2023-02-23T03:28:30;100541.16;;;15.08;44.39
39435;BME280;66825;51.880;-0.518;2023-02-23T03:31:36;100540.91;;;15.05;44.43
39435;BME280;66825;51.880;-0.518;2023-02-23T03:34:29;100616.34;;;15.53;44.51
39435;BME280;66825;51.880;-0.518;2023-02-23T03:37:46;100616.09;;;15.49;44.46
39435;BME280;66825;51.880;-0.518;2023-02-23T03:40:32;100635.34;;;15.53;44.54
39435;BME280;66825;51.880;-0.518;2023-02-23T03:43:21;100632.91;;;15.51;44.40
39435;BME280;66825;51.880;-0.518;2023-02-23T03:46:09;100628.56;;;15.50;44.51
39435;BME280;66825;51.880;-0.518;2023-02-23T03:48:57;100576.97;;;15.11;44.29
39435;BME280;66825;51.880;-0.518;2023-02-23T03:51:46;100634.56;;;15.47;44.38
39435;BME280;66825;51.880;-0.518;2023-02-23T03:54:46;100487.72;;;14.54;44.38
39435;BME280;66825;51.880;-0.518;2023-02-23T03:57:34;100624.53;;;15.43;44.40
39435;BME280;66825;51.880;-0.518;2023-02-23T04:00:26;100571.28;;;15.07;44.37
39435;BME280;66825;51.880;-0.518;2023-02-23T04:03:15;100630.75;;;15.48;44.45
39435;BME280;66825;51.880;-0.518;2023-02-23T04:06:02;100627.00;;;15.39;44.45
39435;BME280;66825;51.880;-0.518;2023-02-23T04:08:48;100632.41;;;15.44;44.28
39435;BME280;66825;51.880;-0.518;2023-02-23T04:11:41;100634.88;;;15.40;44.36
39435;BME280;66825;51.880;-0.518;2023-02-23T04:14:42;100622.69;;;15.33;44.29
39435;BME280;66825;51.880;-0.518;2023-02-23T04:17:09;100647.63;;;15.45;44.37
39435;BME280;66825;51.880;-0.518;2023-02-23T04:19:36;100653.31;;;15.44;44.61
39435;BME280;66825;51.880;-0.518;2023-02-23T04:22:01;100647.13;;;15.38;44.51
39435;BME280;66825;51.880;-0.518;2023-02-23T04:24:27;100640.06;;;15.37;44.53
39435;BME280;66825;51.880;-0.518;2023-02-23T04:26:52;100633.34;;;15.24;44.57
39435;BME280;66825;51.880;-0.518;2023-02-23T04:29:18;100660.94;;;15.42;44.36
39435;BME280;66825;51.880;-0.518;2023-02-23T04:31:43;100654.69;;;15.41;44.67
39435;BME280;66825;51.880;-0.518;2023-02-23T04:34:09;100624.16;;;15.20;44.41
39435;BME280;66825;51.880;-0.518;2023-02-23T04:36:34;100670.97;;;15.41;44.49
39435;BME280;66825;51.880;-0.518;2023-02-23T04:39:00;100636.84;;;15.24;44.39
39435;BME280;66825;51.880;-0.518;2023-02-23T04:41:26;100634.72;;;15.16;44.45
39435;BME280;66825;51.880;-0.518;2023-02-23T04:43:51;100657.19;;;15.32;44.52
39435;BME280;66825;51.880;-0.518;2023-02-23T04:46:17;100655.84;;;15.30;44.43
39435;BME280;66825;51.880;-0.518;2023-02-23T04:48:42;100664.50;;;15.37;44.35
39435;BME280;66825;51.880;-0.518;2023-02-23T04:51:08;100663.97;;;15.35;44.41
39435;BME280;66825;51.880;-0.518;2023-02-23T04:53:33;100609.31;;;14.97;44.44
39435;BME280;66825;51.880;-0.518;2023-02-23T04:55:59;100669.66;;;15.38;44.31
39435;BME280;66825;51.880;-0.518;2023-02-23T04:58:24;100666.94;;;15.38;44.50
39435;BME280;66825;51.880;-0.518;2023-02-23T05:00:50;100638.28;;;15.12;44.40
39435;BME280;66825;51.880;-0.518;2023-02-23T05:03:15;100671.06;;;15.31;44.50
39435;BME280;66825;51.880;-0.518;2023-02-23T05:05:44;100682.41;;;15.33;44.48
39435;BME280;66825;51.880;-0.518;2023-02-23T05:08:09;100668.38;;;15.20;44.48
39435;BME280;66825;51.880;-0.518;2023-02-23T05:10:34;100609.38;;;14.86;44.52
39435;BME280;66825;51.880;-0.518;2023-02-23T05:13:00;100681.59;;;15.37;44.50
39435;BME280;66825;51.880;-0.518;2023-02-23T05:15:26;100672.41;;;15.28;44.34
39435;BME280;66825;51.880;-0.518;2023-02-23T05:17:53;100677.00;;;15.33;44.39
39435;BME280;66825;51.880;-0.518;2023-02-23T05:20:20;100681.38;;;15.29;44.25
39435;BME280;66825;51.880;-0.518;2023-02-23T05:22:45;100686.47;;;15.35;44.71
39435;BME280;66825;51.880;-0.518;2023-02-23T05:25:11;100606.13;;;14.84;44.42
39435;BME280;66825;51.880;-0.518;2023-02-23T05:27:37;100684.88;;;15.34;44.56
39435;BME280;66825;51.880;-0.518;2023-02-23T05:30:03;100649.44;;;15.05;44.46
39435;BME280;66825;51.880;-0.518;2023-02-23T05:32:29;100606.41;;;14.83;44.59
39435;BME280;66825;51.880;-0.518;2023-02-23T05:34:54;100694.91;;;15.34;44.60
39435;BME280;66825;51.880;-0.518;2023-02-23T05:37:20;100701.44;;;15.33;44.55
39435;BME280;66825;51.880;-0.518;2023-02-23T05:39:46;100652.44;;;15.03;44.47
39435;BME280;66825;51.880;-0.518;2023-02-23T05:42:11;100698.72;;;15.33;44.49
39435;BME280;66825;51.880;-0.518;2023-02-23T05:44:37;100712.56;;;15.31;44.54
39435;BME280;66825;51.880;-0.518;2023-02-23T05:47:02;100707.13;;;15.31;44.58
39435;BME280;66825;51.880;-0.518;2023-02-23T05:49:28;100686.81;;;15.18;44.73
39435;BME280;66825;51.880;-0.518;2023-02-23T05:51:53;100688.47;;;15.19;44.54
39435;BME280;66825;51.880;-0.518;2023-02-23T05:54:19;100708.50;;;15.29;44.58
39435;BME280;66825;51.880;-0.518;2023-02-23T05:56:44;100724.50;;;15.30;44.79
39435;BME280;66825;51.880;-0.518;2023-02-23T05:59:10;100730.22;;;15.29;44.54
39435;BME280;66825;51.880;-0.518;2023-02-23T06:01:37;100719.41;;;15.18;44.72
39435;BME280;66825;51.880;-0.518;2023-02-23T06:04:03;100729.41;;;15.28;44.52
39435;BME280;66825;51.880;-0.518;2023-02-23T06:06:29;100731.31;;;15.28;44.76
39435;BME280;66825;51.880;-0.518;2023-02-23T06:08:55;100653.31;;;14.83;44.73
39435;BME280;66825;51.880;-0.518;2023-02-23T06:11:20;100728.59;;;15.28;44.63
39435;BME280;66825;51.880;-0.518;2023-02-23T06:13:46;100727.25;;;15.25;44.68
39435;BME280;66825;51.880;-0.518;2023-02-23T06:16:12;100726.16;;;15.26;44.36
39435;BME280;66825;51.880;-0.518;2023-02-23T06:18:37;100701.56;;;14.97;44.73
39435;BME280;66825;51.880;-0.518;2023-02-23T06:21:03;100650.09;;;14.60;44.65
39435;BME280;66825;51.880;-0.518;2023-02-23T06:23:29;100754.13;;;15.27;44.83
39435;BME280;66825;51.880;-0.518;2023-02-23T06:25:55;100669.06;;;14.76;44.71
39435;BME280;66825;51.880;-0.518;2023-02-23T06:28:21;100738.97;;;15.10;44.52
39435;BME280;66825;51.880;-0.518;2023-02-23T06:30:46;100773.41;;;15.25;44.64
39435;BME280;66825;51.880;-0.518;2023-02-23T06:33:13;100694.03;;;14.73;44.65
39435;BME280;66825;51.880;-0.518;2023-02-23T06:35:38;100789.69;;;15.25;44.72
39435;BME280;66825;51.880;-0.518;2023-02-23T06:38:04;100794.28;;;15.24;44.76
39435;BME280;66825;51.880;-0.518;2023-02-23T06:40:30;100789.72;;;15.20;44.90
39435;BME280;66825;51.880;-0.518;2023-02-23T06:42:56;100767.44;;;15.13;44.71
39435;BME280;66825;51.880;-0.518;2023-02-23T06:45:21;100728.22;;;14.79;44.83
39435;BME280;66825;51.880;-0.518;2023-02-23T06:47:47;100770.47;;;15.06;44.54
39435;BME280;66825;51.880;-0.518;2023-02-23T06:50:13;100812.78;;;15.22;44.68
39435;BME280;66825;51.880;-0.518;2023-02-23T06:52:40;100794.88;;;15.06;44.68
39435;BME280;66825;51.880;-0.518;2023-02-23T06:55:06;100746.41;;;14.68;44.61
39435;BME280;66825;51.880;-0.518;2023-02-23T06:57:32;100825.53;;;15.17;44.75
39435;BME280;66825;51.880;-0.518;2023-02-23T06:59:57;100840.16;;;15.21;44.84
39435;BME280;66825;51.880;-0.518;2023-02-23T07:02:23;100766.72;;;14.76;44.64
39435;BME280;66825;51.880;-0.518;2023-02-23T07:04:48;100842.09;;;15.20;44.71
39435;BME280;66825;51.880;-0.518;2023-02-23T07:07:14;100757.47;;;14.61;44.44
39435;BME280;66825;51.880;-0.518;2023-02-23T07:09:40;100852.94;;;15.20;44.88
39435;BME280;66825;51.880;-0.518;2023-02-23T07:12:08;100856.19;;;15.17;44.36
39435;BME280;66825;51.880;-0.518;2023-02-23T07:14:34;100866.78;;;15.19;44.46
39435;BME280;66825;51.880;-0.518;2023-02-23T07:16:59;100812.56;;;14.83;44.70
39435;BME280;66825;51.880;-0.518;2023-02-23T07:19:25;100803.06;;;14.75;44.71
39435;BME280;66825;51.880;-0.518;2023-02-23T07:21:51;100883.06;;;15.19;44.63
39435;BME280;66825;51.880;-0.518;2023-02-23T07:24:16;100886.03;;;15.17;44.79
39435;BME280;66825;51.880;-0.518;2023-02-23T07:26:42;100891.47;;;15.17;44.72
39435;BME280;66825;51.880;-0.518;2023-02-23T07:29:11;100886.88;;;15.18;44.77
39435;BME280;66825;51.880;-0.518;2023-02-23T07:31:37;100881.69;;;15.16;44.78
39435;BME280;66825;51.880;-0.518;2023-02-23T07:34:02;100817.16;;;14.67;44.82
39435;BME280;66825;51.880;-0.518;2023-02-23T07:36:28;100874.41;;;15.12;44.83
39435;BME280;66825;51.880;-0.518;2023-02-23T07:38:53;100819.34;;;14.75;44.90
39435;BME280;66825;51.880;-0.518;2023-02-23T07:41:20;100859.75;;;14.97;44.86
39435;BME280;66825;51.880;-0.518;2023-02-23T07:43:45;100879.53;;;15.18;45.06
39435;BME280;66825;51.880;-0.518;2023-02-23T07:46:11;100827.47;;;14.80;45.13
39435;BME280;66825;51.880;-0.518;2023-02-23T07:48:37;100908.31;;;15.30;44.96
39435;BME280;66825;51.880;-0.518;2023-02-23T07:51:08;100915.63;;;15.34;44.98
39435;BME280;66825;51.880;-0.518;2023-02-23T07:53:34;100842.66;;;14.91;45.07
39435;BME280;66825;51.880;-0.518;2023-02-23T07:55:59;100909.94;;;15.36;45.09
39435;BME280;66825;51.880;-0.518;2023-02-23T07:58:26;100926.19;;;15.46;44.92
39435;BME280;66825;51.880;-0.518;2023-02-23T08:00:52;100919.69;;;15.47;45.06
39435;BME280;66825;51.880;-0.518;2023-02-23T08:03:18;100932.72;;;15.50;45.11
39435;BME280;66825;51.880;-0.518;2023-02-23T08:05:43;100909.66;;;15.37;44.89
39435;BME280;66825;51.880;-0.518;2023-02-23T08:08:09;100926.19;;;15.56;44.75
39435;BME280;66825;51.880;-0.518;2023-02-23T08:10:35;100932.16;;;15.64;44.87
39435;BME280;66825;51.880;-0.518;2023-02-23T08:13:02;100937.03;;;15.67;44.79
39435;BME280;66825;51.880;-0.518;2023-02-23T08:15:27;100937.31;;;15.70;44.70
39435;BME280;66825;51.880;-0.518;2023-02-23T08:17:53;100937.56;;;15.74;44.67
39435;BME280;66825;51.880;-0.518;2023-02-23T08:20:18;100944.06;;;15.78;44.81
39435;BME280;66825;51.880;-0.518;2023-02-23T08:22:44;100847.50;;;15.20;44.55
39435;BME280;66825;51.880;-0.518;2023-02-23T08:25:09;100952.22;;;15.83;44.53
39435;BME280;66825;51.880;-0.518;2023-02-23T08:27:36;100936.47;;;15.80;44.98
39435;BME280;66825;51.880;-0.518;2023-02-23T08:30:03;100933.72;;;15.75;44.43
39435;BME280;66825;51.880;-0.518;2023-02-23T08:32:33;100954.91;;;15.94;44.33
39435;BME280;66825;51.880;-0.518;2023-02-23T08:35:02;100957.09;;;15.97;44.76
39435;BME280;66825;51.880;-0.518;2023-02-23T08:37:28;100942.41;;;15.93;44.21
39435;BME280;66825;51.880;-0.518;2023-02-23T08:39:54;100864.56;;;15.47;44.72
39435;BME280;66825;51.880;-0.518;2023-02-23T08:42:20;100956.78;;;16.03;44.36
39435;BME280;66825;51.880;-0.518;2023-02-23T08:44:45;100959.47;;;16.09;44.44
39435;BME280;66825;51.880;-0.518;2023-02-23T08:47:13;100944.84;;;15.99;44.34
39435;BME280;66825;51.880;-0.518;2023-02-23T08:49:40;100966.25;;;16.16;44.48
39435;BME280;66825;51.880;-0.518;2023-02-23T08:52:06;100958.66;;;16.18;44.40
39435;BME280;66825;51.880;-0.518;2023-02-23T08:54:31;100964.34;;;16.22;44.53
39435;BME280;66825;51.880;-0.518;2023-02-23T08:56:56;100945.88;;;16.14;44.08
39435;BME280;66825;51.880;-0.518;2023-02-23T08:59:22;100956.69;;;16.24;43.59
39435;BME280;66825;51.880;-0.518;2023-02-23T09:01:48;100898.94;;;15.93;44.21
39435;BME280;66825;51.880;-0.518;2023-02-23T09:04:14;100960.44;;;16.39;44.03
39435;BME280;66825;51.880;-0.518;2023-02-23T09:06:39;100963.97;;;16.44;44.00
39435;BME280;66825;51.880;-0.518;2023-02-23T09:09:05;100868.25;;;15.92;44.13
39435;BME280;66825;51.880;-0.518;2023-02-23T09:11:31;100893.44;;;16.08;43.83
39435;BME280;66825;51.880;-0.518;2023-02-23T09:13:57;100950.88;;;16.51;43.87
39435;BME280;66825;51.880;-0.518;2023-02-23T09:16:23;100875.25;;;16.03;44.53
39435;BME280;66825;51.880;-0.518;2023-02-23T09:18:48;100905.34;;;16.23;45.36
39435;BME280;66825;51.880;-0.518;2023-02-23T09:21:17;100953.78;;;16.65;45.57
39435;BME280;66825;51.880;-0.518;2023-02-23T09:23:45;100965.94;;;16.78;46.39
39435;BME280;66825;51.880;-0.518;2023-02-23T09:26:12;100987.09;;;16.87;46.34
39435;BME280;66825;51.880;-0.518;2023-02-23T09:28:38;100983.53;;;16.91;47.12
39435;BME280;66825;51.880;-0.518;2023-02-23T09:31:11;100932.03;;;16.60;47.00
39435;BME280;66825;51.880;-0.518;2023-02-23T09:33:37;100999.50;;;17.08;46.70
39435;BME280;66825;51.880;-0.518;2023-02-23T09:36:11;100995.94;;;17.13;46.42
39435;BME280;66825;51.880;-0.518;2023-02-23T09:38:39;100944.66;;;16.86;45.12
39435;BME280;66825;51.880;-0.518;2023-02-23T09:44:14;100997.69;;;17.33;45.35
39435;BME280;66825;51.880;-0.518;2023-02-23T09:46:50;100915.25;;;16.88;45.42
39435;BME280;66825;51.880;-0.518;2023-02-23T09:49:25;100933.66;;;17.06;45.48
39435;BME280;66825;51.880;-0.518;2023-02-23T09:51:54;100979.66;;;17.42;45.48
39435;BME280;66825;51.880;-0.518;2023-02-23T09:54:27;100994.75;;;17.59;44.97
39435;BME280;66825;51.880;-0.518;2023-02-23T09:56:53;100999.06;;;17.65;44.59
39435;BME280;66825;51.880;-0.518;2023-02-23T09:59:23;100942.19;;;17.29;44.26
39435;BME280;66825;51.880;-0.518;2023-02-23T10:04:35;100923.38;;;17.33;45.41
39435;BME280;66825;51.880;-0.518;2023-02-23T10:10:16;100999.09;;;17.89;44.96
39435;BME280;66825;51.880;-0.518;2023-02-23T10:21:15;101015.25;;;18.10;44.15
39435;BME280;66825;51.880;-0.518;2023-02-23T10:23:47;100961.25;;;17.83;43.67
39435;BME280;66825;51.880;-0.518;2023-02-23T10:26:21;100992.03;;;18.13;43.43
39435;BME280;66825;51.880;-0.518;2023-02-23T10:28:48;100940.09;;;17.74;43.71
39435;BME280;66825;51.880;-0.518;2023-02-23T10:31:41;101023.81;;;18.28;43.70
39435;BME280;66825;51.880;-0.518;2023-02-23T10:34:15;101025.34;;;18.34;43.84
39435;BME280;66825;51.880;-0.518;2023-02-23T10:36:52;101029.13;;;18.38;43.84
39435;BME280;66825;51.880;-0.518;2023-02-23T10:39:22;101029.34;;;18.41;43.62
39435;BME280;66825;51.880;-0.518;2023-02-23T10:41:47;100940.53;;;17.87;43.91
39435;BME280;66825;51.880;-0.518;2023-02-23T10:44:21;101014.78;;;18.27;43.89
39435;BME280;66825;51.880;-0.518;2023-02-23T10:46:57;101047.81;;;18.50;43.51
39435;BME280;66825;51.880;-0.518;2023-02-23T10:50:09;101016.31;;;18.38;43.60
39435;BME280;66825;51.880;-0.518;2023-02-23T10:52:20;101051.59;;;18.54;43.44
39435;BME280;66825;51.880;-0.518;2023-02-23T10:54:49;101036.59;;;18.51;43.83
39435;BME280;66825;51.880;-0.518;2023-02-23T11:02:45;101033.81;;;18.56;43.60
39435;BME280;66825;51.880;-0.518;2023-02-23T11:08:13;100992.09;;;18.32;43.11
39435;BME280;66825;51.880;-0.518;2023-02-23T11:13:43;101044.88;;;18.65;43.18
39435;BME280;66825;51.880;-0.518;2023-02-23T11:16:14;100905.13;;;17.82;43.25
39435;BME280;66825;51.880;-0.518;2023-02-23T11:18:47;101033.66;;;18.67;43.16
39435;BME280;66825;51.880;-0.518;2023-02-23T11:21:23;101032.03;;;18.66;44.54
39435;BME280;66825;51.880;-0.518;2023-02-23T11:23:51;101038.31;;;18.66;43.23
39435;BME280;66825;51.880;-0.518;2023-02-23T11:29:11;101050.03;;;18.67;43.29
39435;BME280;66825;51.880;-0.518;2023-02-23T11:31:38;101027.75;;;18.60;43.31
39435;BME280;66825;51.880;-0.518;2023-02-23T11:34:05;101041.56;;;18.68;43.32
39435;BME280;66825;51.880;-0.518;2023-02-23T11:36:35;101050.56;;;18.69;43.26
39435;BME280;66825;51.880;-0.518;2023-02-23T11:39:16;101054.91;;;18.70;43.30
39435;BME280;66825;51.880;-0.518;2023-02-23T11:41:43;101040.97;;;18.71;43.35
39435;BME280;66825;51.880;-0.518;2023-02-23T11:44:19;101042.91;;;18.71;43.10
39435;BME280;66825;51.880;-0.518;2023-02-23T11:46:46;101051.88;;;18.71;43.33
39435;BME280;66825;51.880;-0.518;2023-02-23T11:49:19;100970.13;;;18.23;43.09
39435;BME280;66825;51.880;-0.518;2023-02-23T11:51:48;100973.88;;;18.27;43.23
39435;BME280;66825;51.880;-0.518;2023-02-23T11:54:32;101029.09;;;18.62;43.04
39435;BME280;66825;51.880;-0.518;2023-02-23T11:56:59;101017.44;;;18.56;43.12
39435;BME280;66825;51.880;-0.518;2023-02-23T11:59:36;100973.31;;;18.30;42.92
39435;BME280;66825;51.880;-0.518;2023-02-23T12:02:20;101044.00;;;18.70;43.12
39435;BME280;66825;51.880;-0.518;2023-02-23T12:04:49;101042.94;;;18.66;43.37
39435;BME280;66825;51.880;-0.518;2023-02-23T12:10:17;101004.25;;;18.39;43.19
39435;BME280;66825;51.880;-0.518;2023-02-23T12:12:53;101039.34;;;18.70;43.41
39435;BME280;66825;51.880;-0.518;2023-02-23T12:15:28;100993.44;;;18.34;43.12
39435;BME280;66825;51.880;-0.518;2023-02-23T12:18:03;101042.59;;;18.72;43.19
39435;BME280;66825;51.880;-0.518;2023-02-23T12:20:37;101051.88;;;18.71;43.14
39435;BME280;66825;51.880;-0.518;2023-02-23T12:23:11;101053.81;;;18.71;43.16
39435;BME280;66825;51.880;-0.518;2023-02-23T12:28:26;101052.19;;;18.70;42.98
39435;BME280;66825;51.880;-0.518;2023-02-23T12:31:18;101038.03;;;18.68;42.72
39435;BME280;66825;51.880;-0.518;2023-02-23T12:33:52;101034.50;;;18.67;42.87
39435;BME280;66825;51.880;-0.518;2023-02-23T12:36:26;101027.41;;;18.66;42.96
39435;BME280;66825;51.880;-0.518;2023-02-23T12:39:03;101021.28;;;18.55;42.95
39435;BME280;66825;51.880;-0.518;2023-02-23T12:41:36;101042.38;;;18.69;42.93
39435;BME280;66825;51.880;-0.518;2023-02-23T12:46:44;101007.22;;;18.43;43.11
39435;BME280;66825;51.880;-0.518;2023-02-23T12:49:47;101033.38;;;18.68;42.97
39435;BME280;66825;51.880;-0.518;2023-02-23T12:52:21;100974.63;;;18.33;42.88
39435;BME280;66825;51.880;-0.518;2023-02-23T12:54:50;101051.78;;;18.82;42.77
39435;BME280;66825;51.880;-0.518;2023-02-23T13:00:03;101051.69;;;18.87;42.90
39435;BME280;66825;51.880;-0.518;2023-02-23T13:05:37;100894.91;;;17.92;42.69
39435;BME280;66825;51.880;-0.518;2023-02-23T13:08:19;101045.59;;;18.95;42.43
39435;BME280;66825;51.880;-0.518;2023-02-23T13:11:03;101042.25;;;18.98;41.99
39435;BME280;66825;51.880;-0.518;2023-02-23T13:16:33;100964.28;;;18.54;42.03
39435;BME280;66825;51.880;-0.518;2023-02-23T13:19:22;101045.44;;;19.05;42.27
39435;BME280;66825;51.880;-0.518;2023-02-23T13:24:40;101045.97;;;19.08;42.36
39435;BME280;66825;51.880;-0.518;2023-02-23T13:27:18;101047.59;;;19.09;41.76
39435;BME280;66825;51.880;-0.518;2023-02-23T13:29:46;100964.72;;;18.61;41.80
39435;BME280;66825;51.880;-0.518;2023-02-23T13:32:28;101020.50;;;18.93;41.75
39435;BME280;66825;51.880;-0.518;2023-02-23T13:35:09;101036.75;;;19.03;41.74
39435;BME280;66825;51.880;-0.518;2023-02-23T13:37:43;101025.38;;;18.96;41.95
39435;BME280;66825;51.880;-0.518;2023-02-23T13:46:03;101019.94;;;18.91;41.76
39435;BME280;66825;51.880;-0.518;2023-02-23T13:53:43;100964.63;;;18.47;41.92
39435;BME280;66825;51.880;-0.518;2023-02-23T13:56:15;101027.13;;;18.87;41.74
39435;BME280;66825;51.880;-0.518;2023-02-23T13:58:47;100965.16;;;18.49;42.01
39435;BME280;66825;51.880;-0.518;2023-02-23T14:01:36;101033.59;;;18.91;41.61
39435;BME280;66825;51.880;-0.518;2023-02-23T14:04:12;101031.19;;;18.89;41.64
39435;BME280;66825;51.880;-0.518;2023-02-23T14:06:39;101021.53;;;18.78;41.91
39435;BME280;66825;51.880;-0.518;2023-02-23T14:09:53;100979.28;;;18.51;41.79
39435;BME280;66825;51.880;-0.518;2023-02-23T14:12:10;101045.44;;;18.86;41.43
39435;BME280;66825;51.880;-0.518;2023-02-23T14:14:43;100992.94;;;18.51;41.68
39435;BME280;66825;51.880;-0.518;2023-02-23T14:22:29;101045.69;;;18.85;41.80
39435;BME280;66825;51.880;-0.518;2023-02-23T14:28:32;101050.94;;;18.81;41.38
39435;BME280;66825;51.880;-0.518;2023-02-23T14:39:08;101060.59;;;18.73;40.34
39435;BME280;66825;51.880;-0.518;2023-02-23T14:41:57;101053.81;;;18.71;40.57
39435;BME280;66825;51.880;-0.518;2023-02-23T14:44:26;100984.31;;;18.20;40.73
39435;BME280;66825;51.880;-0.518;2023-02-23T14:46:54;101068.03;;;18.68;40.83
39435;BME280;66825;51.880;-0.518;2023-02-23T14:49:24;101074.59;;;18.67;40.92
39435;BME280;66825;51.880;-0.518;2023-02-23T14:51:52;101003.34;;;18.25;40.89
39435;BME280;66825;51.880;-0.518;2023-02-23T14:54:24;101050.97;;;18.57;40.97
39435;BME280;66825;51.880;-0.518;2023-02-23T14:56:53;101066.72;;;18.65;41.04